createdAt,value
2018-07-03T00:00:58.779Z,14.20
2018-07-03T00:03:27.184Z,14.10
2018-07-03T00:05:55.610Z,14.10
2018-07-03T00:08:24.083Z,14.10
2018-07-03T00:10:52.577Z,14.00
2018-07-03T00:13:21.144Z,14.10
2018-07-03T00:15:49.686Z,14.10
2018-07-03T00:18:18.360Z,14.00
2018-07-03T00:20:46.838Z,14.00
2018-07-03T00:23:15.489Z,13.90
2018-07-03T00:25:43.944Z,13.90
2018-07-03T00:28:12.336Z,13.80
2018-07-03T00:30:40.855Z,13.80
2018-07-03T00:33:09.285Z,13.80
2018-07-03T00:35:37.685Z,13.70
2018-07-03T00:38:06.119Z,13.60
2018-07-03T00:40:34.745Z,13.70
2018-07-03T00:45:31.388Z,13.60
2018-07-03T00:47:59.918Z,13.60
2018-07-03T00:50:28.458Z,13.50
2018-07-03T00:52:57.088Z,13.50
2018-07-03T00:55:25.526Z,13.40
2018-07-03T00:57:53.932Z,13.30
2018-07-03T01:00:33.497Z,13.30
2018-07-03T01:03:02.802Z,13.20
2018-07-03T01:05:31.352Z,13.10
2018-07-03T01:10:28.496Z,13.10
2018-07-03T01:12:57.318Z,13.20
2018-07-03T01:15:26.692Z,13.20
2018-07-03T01:17:55.312Z,13.20
2018-07-03T01:20:23.712Z,13.30
2018-07-03T01:22:52.424Z,13.20
2018-07-03T01:25:20.854Z,13.10
2018-07-03T01:27:49.554Z,12.90
2018-07-03T01:30:18.081Z,12.80
2018-07-03T01:35:14.846Z,12.70
2018-07-03T01:37:43.279Z,12.60
2018-07-03T01:40:11.680Z,12.60
2018-07-03T01:42:40.137Z,12.60
2018-07-03T01:45:08.878Z,12.60
2018-07-03T01:47:37.257Z,12.60
2018-07-03T01:50:05.663Z,12.50
2018-07-03T01:52:34.187Z,12.50
2018-07-03T01:55:02.612Z,12.50
2018-07-03T01:57:31.129Z,12.50
2018-07-03T02:00:02.632Z,12.40
2018-07-03T02:02:31.129Z,12.40
2018-07-03T02:04:59.706Z,12.40
2018-07-03T02:07:28.126Z,12.30
2018-07-03T02:09:56.649Z,12.30
2018-07-03T02:12:25.089Z,12.20
2018-07-03T02:14:53.583Z,12.20
2018-07-03T02:17:22.010Z,12.10
2018-07-03T02:19:50.431Z,12.20
2018-07-03T02:22:18.875Z,12.10
2018-07-03T02:24:47.355Z,12.00
2018-07-03T02:27:15.810Z,12.10
2018-07-03T02:29:44.252Z,12.00
2018-07-03T02:32:12.666Z,11.90
2018-07-03T02:34:41.122Z,11.90
2018-07-03T02:37:09.623Z,11.90
2018-07-03T02:39:38.451Z,11.90
2018-07-03T02:42:06.864Z,11.90
2018-07-03T02:44:35.351Z,11.90
2018-07-03T02:47:03.841Z,11.90
2018-07-03T02:49:32.290Z,11.90
2018-07-03T02:52:01.596Z,11.80
2018-07-03T02:54:30.562Z,11.80
2018-07-03T02:56:58.994Z,11.70
2018-07-03T02:59:27.556Z,11.80
2018-07-03T03:01:56.001Z,11.70
2018-07-03T03:04:24.446Z,11.70
2018-07-03T03:06:53.004Z,11.70
2018-07-03T03:09:21.422Z,11.70
2018-07-03T03:11:50.024Z,11.70
2018-07-03T03:14:18.432Z,11.60
2018-07-03T03:16:46.856Z,11.60
2018-07-03T03:19:15.491Z,11.70
2018-07-03T03:21:44.107Z,11.60
2018-07-03T03:24:12.507Z,11.60
2018-07-03T03:26:41.081Z,11.70
2018-07-03T03:29:09.742Z,11.70
2018-07-03T03:31:38.316Z,11.60
2018-07-03T03:34:06.697Z,11.60
2018-07-03T03:36:35.156Z,11.60
2018-07-03T03:39:03.737Z,11.60
2018-07-03T03:41:32.224Z,11.50
2018-07-03T03:44:00.817Z,11.50
2018-07-03T03:46:29.289Z,11.60
2018-07-03T03:48:57.821Z,11.60
2018-07-03T03:51:26.345Z,11.60
2018-07-03T03:53:54.801Z,11.60
2018-07-03T03:56:23.202Z,11.50
2018-07-03T03:58:51.640Z,11.60
2018-07-03T04:01:20.476Z,11.60
2018-07-03T04:03:48.987Z,11.60
2018-07-03T04:06:17.404Z,11.60
2018-07-03T04:08:45.920Z,11.70
2018-07-03T04:11:14.671Z,11.70
2018-07-03T04:13:43.072Z,11.80
2018-07-03T04:16:11.520Z,11.90
2018-07-03T04:18:40.021Z,11.90
2018-07-03T04:21:08.743Z,11.90
2018-07-03T04:23:38.041Z,12.00
2018-07-03T04:26:06.417Z,12.10
2018-07-03T04:28:35.052Z,12.20
2018-07-03T04:31:03.778Z,12.20
2018-07-03T04:33:32.242Z,12.40
2018-07-03T04:36:00.852Z,12.50
2018-07-03T04:38:29.287Z,12.60
2018-07-03T04:40:57.738Z,12.70
2018-07-03T04:43:26.181Z,12.80
2018-07-03T04:45:54.797Z,12.90
2018-07-03T04:50:52.049Z,13.00
2018-07-03T04:53:20.576Z,13.10
2018-07-03T04:55:49.002Z,13.10
2018-07-03T04:58:17.534Z,13.20
2018-07-03T05:00:46.109Z,13.20
2018-07-03T05:03:14.801Z,13.20
2018-07-03T05:05:43.458Z,13.30
2018-07-03T05:10:41.677Z,13.50
2018-07-03T05:13:10.216Z,13.60
2018-07-03T05:15:38.673Z,13.60
2018-07-03T05:18:07.162Z,13.70
2018-07-03T05:20:35.577Z,13.80
2018-07-03T05:23:04.049Z,13.90
2018-07-03T05:28:00.807Z,14.10
2018-07-03T05:30:30.202Z,14.10
2018-07-03T05:32:58.685Z,14.20
2018-07-03T05:35:27.266Z,14.20
2018-07-03T05:40:24.029Z,14.30
2018-07-03T05:42:52.521Z,14.40
2018-07-03T05:45:20.974Z,14.60
2018-07-03T05:50:17.724Z,14.90
2018-07-03T05:55:14.391Z,15.00
2018-07-03T06:00:11.243Z,15.30
2018-07-03T06:02:39.620Z,15.50
2018-07-03T06:07:36.441Z,15.90
2018-07-03T06:10:05.455Z,16.00
2018-07-03T06:12:33.856Z,16.10
2018-07-03T06:15:02.721Z,16.00
2018-07-03T06:17:31.190Z,16.10
2018-07-03T06:19:59.729Z,16.20
2018-07-03T06:22:28.367Z,16.30
2018-07-03T06:24:56.924Z,16.40
2018-07-03T06:27:25.664Z,16.50
2018-07-03T06:29:54.373Z,16.60
2018-07-03T06:32:23.109Z,16.60
2018-07-03T06:34:51.574Z,16.70
2018-07-03T06:37:20.185Z,16.70
2018-07-03T06:39:48.771Z,16.80
2018-07-03T06:42:17.181Z,17.00
2018-07-03T06:44:45.946Z,17.20
2018-07-03T06:47:14.362Z,17.30
2018-07-03T06:49:42.974Z,17.50
2018-07-03T06:52:11.575Z,17.70
2018-07-03T06:57:08.490Z,17.50
2018-07-03T06:59:37.046Z,17.50
2018-07-03T07:02:05.584Z,17.70
2018-07-03T07:04:34.082Z,17.90
2018-07-03T07:07:02.534Z,18.00
2018-07-03T07:09:31.070Z,18.10
2018-07-03T07:11:59.469Z,18.20
2018-07-03T07:14:27.883Z,18.30
2018-07-03T07:16:56.535Z,18.50
2018-07-03T07:19:25.052Z,18.50
2018-07-03T07:21:53.459Z,18.70
2018-07-03T07:24:21.942Z,18.90
2018-07-03T07:26:50.413Z,19.00
2018-07-03T07:31:47.071Z,19.30
2018-07-03T07:36:43.291Z,19.60
2018-07-03T07:39:12.763Z,19.70
2018-07-03T07:41:41.860Z,19.70
2018-07-03T07:44:10.412Z,19.80
2018-07-03T07:46:38.846Z,20.00
2018-07-03T07:49:07.874Z,20.10
2018-07-03T07:51:36.260Z,20.10
2018-07-03T07:54:04.754Z,20.20
2018-07-03T07:56:33.279Z,20.30
2018-07-03T07:59:01.714Z,20.40
2018-07-03T08:01:30.343Z,20.40
2018-07-03T08:03:58.940Z,20.30
2018-07-03T08:08:55.946Z,20.40
2018-07-03T08:11:24.895Z,20.50
2018-07-03T08:13:53.385Z,20.70
2018-07-03T08:18:50.164Z,21.00
2018-07-03T08:21:18.692Z,21.20
2018-07-03T08:23:47.181Z,21.20
2018-07-03T08:26:15.681Z,21.20
2018-07-03T08:28:44.242Z,21.40
2018-07-03T08:31:12.667Z,21.60
2018-07-03T08:33:41.215Z,21.80
2018-07-03T08:36:09.736Z,21.90
2018-07-03T08:38:38.174Z,21.90
2018-07-03T08:41:07.182Z,21.90
2018-07-03T08:46:03.847Z,22.20
2018-07-03T08:48:32.500Z,22.40
2018-07-03T08:51:00.925Z,22.50
2018-07-03T08:53:29.564Z,22.60
2018-07-03T08:55:58.075Z,22.50
2018-07-03T08:58:26.538Z,22.50
2018-07-03T09:00:54.987Z,22.50
2018-07-03T09:03:23.391Z,22.60
2018-07-03T09:05:51.905Z,22.60
2018-07-03T09:08:20.633Z,22.80
2018-07-03T09:10:49.081Z,22.80
2018-07-03T09:13:17.759Z,22.90
2018-07-03T09:15:46.185Z,23.20
2018-07-03T09:18:14.690Z,23.40
2018-07-03T09:20:43.157Z,23.50
2018-07-03T09:25:39.725Z,23.10
2018-07-03T09:28:08.309Z,23.00
2018-07-03T09:30:36.796Z,23.30
2018-07-03T09:33:05.456Z,23.60
2018-07-03T09:35:33.863Z,23.70
2018-07-03T09:38:02.646Z,24.00
2018-07-03T09:40:31.219Z,24.20
2018-07-03T09:42:59.673Z,24.30
2018-07-03T09:45:28.150Z,24.40
2018-07-03T09:47:56.916Z,24.40
2018-07-03T09:50:25.848Z,24.60
2018-07-03T09:52:54.311Z,24.60
2018-07-03T09:55:22.967Z,24.40
2018-07-03T09:57:51.564Z,24.30
2018-07-03T10:01:24.405Z,24.30
2018-07-03T10:03:52.892Z,24.40
2018-07-03T10:06:21.356Z,24.60
2018-07-03T10:11:18.014Z,24.30
2018-07-03T10:13:46.461Z,24.40
2018-07-03T10:16:14.944Z,24.40
2018-07-03T10:18:43.416Z,24.30
2018-07-03T10:21:12.064Z,24.00
2018-07-03T10:23:40.453Z,23.90
2018-07-03T10:26:08.907Z,24.00
2018-07-03T10:28:37.914Z,24.10
2018-07-03T10:31:26.814Z,24.30
2018-07-03T10:46:51.787Z,24.80
2018-07-03T10:49:20.157Z,25.40
2018-07-03T10:51:48.613Z,25.60
2018-07-03T10:54:17.023Z,25.80
2018-07-03T10:56:45.469Z,25.90
2018-07-03T10:59:14.194Z,25.90
2018-07-03T11:01:42.651Z,26.00
2018-07-03T11:04:11.112Z,25.80
2018-07-03T11:09:10.564Z,25.80
2018-07-03T11:11:39.018Z,25.80
2018-07-03T11:14:07.959Z,25.60
2018-07-03T11:16:36.607Z,25.50
2018-07-03T11:19:05.274Z,25.60
2018-07-03T11:21:33.748Z,25.60
2018-07-03T11:24:02.358Z,25.60
2018-07-03T11:26:30.799Z,25.70
2018-07-03T11:28:59.526Z,26.00
2018-07-03T11:31:28.816Z,26.10
2018-07-03T11:33:57.263Z,26.30
2018-07-03T11:36:25.768Z,26.50
2018-07-03T11:38:54.226Z,26.60
2018-07-03T11:41:22.724Z,26.70
2018-07-03T11:43:51.677Z,26.60
2018-07-03T11:46:20.324Z,26.50
2018-07-03T11:48:48.885Z,26.20
2018-07-03T11:51:17.349Z,26.40
2018-07-03T11:53:45.845Z,26.70
2018-07-03T11:56:14.361Z,26.60
2018-07-03T11:58:42.739Z,26.40
2018-07-03T12:01:11.423Z,26.30
2018-07-03T12:03:39.837Z,26.30
2018-07-03T12:06:08.342Z,26.60
2018-07-03T12:08:36.841Z,26.60
2018-07-03T12:11:05.298Z,26.60
2018-07-03T12:13:33.753Z,26.60
2018-07-03T12:16:02.513Z,26.60
2018-07-03T12:18:36.535Z,26.60
2018-07-03T12:21:05.069Z,26.90
2018-07-03T12:26:02.104Z,27.20
2018-07-03T12:28:30.961Z,27.20
2018-07-03T12:30:59.396Z,27.00
2018-07-03T12:33:27.869Z,27.30
2018-07-03T12:38:24.529Z,27.50
2018-07-03T12:40:52.995Z,27.60
2018-07-03T12:43:21.485Z,28.00
2018-07-03T12:45:50.071Z,28.30
2018-07-03T12:50:46.742Z,29.80
2018-07-03T12:53:15.198Z,31.10
2018-07-03T12:55:43.881Z,32.90
2018-07-03T12:58:12.393Z,31.90
2018-07-03T13:00:40.863Z,31.50
2018-07-03T13:03:09.335Z,31.30
2018-07-03T13:05:37.804Z,30.80
2018-07-03T13:10:34.601Z,33.00
2018-07-03T13:13:03.031Z,33.60
2018-07-03T13:15:31.509Z,33.80
2018-07-03T13:18:04.339Z,32.60
2018-07-03T13:20:32.753Z,32.00
2018-07-03T13:23:01.258Z,32.20
2018-07-03T13:25:29.893Z,33.60
2018-07-03T13:27:58.409Z,32.40
2018-07-03T13:30:26.938Z,32.30
2018-07-03T13:32:55.417Z,31.00
2018-07-03T13:35:23.943Z,31.30
2018-07-03T13:37:52.708Z,32.80
2018-07-03T13:40:21.230Z,34.20
2018-07-03T13:42:49.700Z,35.00
2018-07-03T13:45:18.316Z,35.00
2018-07-03T13:47:46.766Z,34.70
2018-07-03T13:50:15.280Z,35.40
2018-07-03T13:52:44.068Z,35.80
2018-07-03T13:55:12.533Z,33.70
2018-07-03T13:57:41.030Z,33.70
2018-07-03T14:00:09.943Z,34.80
2018-07-03T14:02:38.474Z,35.10
2018-07-03T14:05:07.217Z,35.40
2018-07-03T14:07:35.750Z,35.30
2018-07-03T14:10:04.534Z,36.30
2018-07-03T14:12:33.351Z,37.20
2018-07-03T14:15:01.776Z,38.60
2018-07-03T14:17:30.199Z,38.70
2018-07-03T14:19:58.790Z,38.60
2018-07-03T14:22:27.458Z,38.10
2018-07-03T14:24:55.967Z,38.30
2018-07-03T14:27:24.444Z,37.00
2018-07-03T14:29:52.888Z,37.00
2018-07-03T14:32:21.318Z,37.50
2018-07-03T14:34:49.945Z,37.60
2018-07-03T14:37:18.543Z,37.10
2018-07-03T14:39:46.984Z,37.00
2018-07-03T14:42:15.511Z,34.80
2018-07-03T14:44:43.993Z,35.60
2018-07-03T14:47:12.460Z,37.70
2018-07-03T14:49:40.919Z,36.10
2018-07-03T14:52:09.629Z,35.20
2018-07-03T14:54:38.245Z,35.70
2018-07-03T14:57:06.709Z,36.40
2018-07-03T14:59:35.150Z,38.20
2018-07-03T15:02:03.596Z,39.20
2018-07-03T15:04:32.017Z,37.50
2018-07-03T15:07:00.720Z,36.90
2018-07-03T15:11:57.813Z,37.00
2018-07-03T15:14:27.848Z,37.60
2018-07-03T15:16:56.304Z,37.70
2018-07-03T15:19:30.218Z,38.50
2018-07-03T15:21:58.672Z,38.20
2018-07-03T15:24:27.399Z,36.80
2018-07-03T15:26:55.889Z,35.90
2018-07-03T15:29:24.533Z,36.20
2018-07-03T15:31:53.122Z,36.60
2018-07-03T15:34:21.683Z,38.40
2018-07-03T15:36:50.146Z,39.00
2018-07-03T15:39:18.718Z,38.40
2018-07-03T15:41:47.245Z,38.20
2018-07-03T15:46:50.291Z,37.30
2018-07-03T15:49:18.795Z,37.60
2018-07-03T15:51:47.601Z,36.70
2018-07-03T15:56:44.811Z,34.70
2018-07-03T15:59:13.252Z,34.60
2018-07-03T16:05:24.244Z,34.80
2018-07-03T16:08:02.628Z,36.30
2018-07-03T16:10:31.213Z,36.50
2018-07-03T16:12:59.700Z,35.70
2018-07-03T16:15:28.136Z,35.60
2018-07-03T16:17:56.724Z,36.70
2018-07-03T16:20:30.558Z,38.20
2018-07-03T16:22:59.087Z,39.70
2018-07-03T16:25:27.578Z,40.60
2018-07-03T16:27:56.385Z,38.90
2018-07-03T16:30:24.799Z,38.30
2018-07-03T16:32:53.273Z,38.50
2018-07-03T16:35:21.765Z,38.00
2018-07-03T16:37:50.242Z,38.20
2018-07-03T16:42:38.517Z,39.70
2018-07-03T16:45:06.946Z,39.70
2018-07-03T16:47:35.392Z,39.00
2018-07-03T16:50:03.830Z,39.30
2018-07-03T16:52:32.440Z,38.80
2018-07-03T16:55:00.946Z,39.40
2018-07-03T16:57:29.408Z,39.30
2018-07-03T16:59:57.853Z,38.10
2018-07-03T17:02:26.458Z,36.80
2018-07-03T17:07:23.138Z,34.70
2018-07-03T17:09:51.573Z,33.90
2018-07-03T17:12:20.437Z,33.00
2018-07-03T17:14:49.027Z,33.30
2018-07-03T17:17:17.534Z,33.50
2018-07-03T17:19:46.108Z,32.80
2018-07-03T17:22:14.720Z,32.80
2018-07-03T17:24:43.765Z,33.30
2018-07-03T17:27:12.428Z,33.20
2018-07-03T17:29:40.855Z,32.80
2018-07-03T17:32:09.324Z,32.50
2018-07-03T17:34:38.072Z,31.80
2018-07-03T17:37:06.497Z,32.30
2018-07-03T17:39:46.478Z,33.10
2018-07-03T17:42:26.597Z,33.90
2018-07-03T17:46:00.074Z,33.80
2018-07-03T17:48:28.601Z,33.80
2018-07-03T17:50:57.247Z,32.20
2018-07-03T17:53:26.296Z,31.70
2018-07-03T17:55:55.008Z,32.20
2018-07-03T17:58:23.772Z,32.10
2018-07-03T18:00:51.978Z,32.50
2018-07-03T18:03:20.654Z,32.40
2018-07-03T18:05:49.299Z,32.40
2018-07-03T18:08:17.848Z,31.70
2018-07-03T18:10:46.310Z,30.20
2018-07-03T18:13:14.964Z,29.10
2018-07-03T18:15:43.479Z,28.20
2018-07-03T18:18:11.984Z,27.70
2018-07-03T18:20:40.589Z,28.00
2018-07-03T18:23:09.067Z,27.90
2018-07-03T18:25:37.567Z,27.30
2018-07-03T18:28:06.243Z,26.60
2018-07-03T18:30:34.674Z,27.00
2018-07-03T18:33:03.188Z,28.00
2018-07-03T18:35:31.683Z,29.00
2018-07-03T18:38:00.168Z,29.20
2018-07-03T18:40:28.701Z,29.70
2018-07-03T18:42:57.219Z,30.50
2018-07-03T18:45:25.759Z,30.10
2018-07-03T18:47:54.357Z,28.80
2018-07-03T18:50:22.983Z,28.40
2018-07-03T18:55:19.871Z,27.50
2018-07-03T18:57:48.291Z,27.10
2018-07-03T19:00:16.795Z,26.30
2018-07-03T19:02:45.432Z,25.40
2018-07-03T19:05:14.256Z,24.30
2018-07-03T19:10:11.037Z,24.10
2018-07-03T19:12:40.071Z,24.70
2018-07-03T19:15:09.209Z,25.20
2018-07-03T19:17:37.652Z,25.70
2018-07-03T19:20:06.476Z,25.60
2018-07-03T19:25:03.442Z,25.10
2018-07-03T19:27:33.297Z,24.30
2018-07-03T19:30:02.550Z,23.40
2018-07-03T19:32:30.988Z,22.20
2018-07-03T19:34:59.656Z,21.60
2018-07-03T19:37:28.071Z,21.00
2018-07-03T19:39:56.494Z,20.70
2018-07-03T19:42:24.986Z,20.40
2018-07-03T19:44:53.433Z,20.10
2018-07-03T19:47:22.055Z,20.00
2018-07-03T19:49:50.667Z,19.80
2018-07-03T19:52:19.487Z,19.60
2018-07-03T19:54:47.954Z,19.40
2018-07-03T19:57:16.454Z,19.20
2018-07-03T19:59:45.067Z,19.20
2018-07-03T20:02:13.625Z,19.00
2018-07-03T20:04:42.119Z,19.00
2018-07-03T20:07:10.593Z,18.90
2018-07-03T20:09:39.144Z,18.80
2018-07-03T20:12:07.887Z,18.60
2018-07-03T20:14:36.467Z,18.50
2018-07-03T20:17:06.344Z,18.30
2018-07-03T20:19:34.802Z,18.20
2018-07-03T20:22:03.413Z,18.10
2018-07-03T20:29:28.447Z,17.90
2018-07-03T20:34:25.708Z,17.50
2018-07-03T20:36:54.177Z,17.40
2018-07-03T20:39:22.761Z,17.50
2018-07-03T20:41:51.597Z,17.30
2018-07-03T20:44:20.057Z,17.30
2018-07-03T20:46:48.534Z,17.20
2018-07-03T20:49:16.934Z,17.00
2018-07-03T20:51:45.456Z,16.90
2018-07-03T20:54:14.055Z,16.90
2018-07-03T20:56:42.529Z,16.90
2018-07-03T20:59:10.964Z,16.90
2018-07-03T21:01:39.358Z,16.90
2018-07-03T21:04:09.627Z,16.80
2018-07-03T21:06:38.111Z,16.70
2018-07-03T21:11:35.564Z,16.40
2018-07-03T21:14:04.105Z,16.40
2018-07-03T21:16:32.531Z,16.30
2018-07-03T21:19:01.438Z,16.20
2018-07-03T21:21:29.918Z,16.10
2018-07-03T21:23:58.462Z,16.00
2018-07-03T21:26:26.987Z,16.00
2018-07-03T21:28:55.481Z,16.00
2018-07-03T21:31:23.916Z,16.00
2018-07-03T21:33:52.369Z,15.90
2018-07-03T21:36:22.192Z,15.90
2018-07-03T21:38:50.651Z,15.70
2018-07-03T21:41:19.255Z,15.70
2018-07-03T21:43:47.727Z,15.60
2018-07-03T21:46:16.137Z,15.50
2018-07-03T21:51:12.784Z,15.50
2018-07-03T21:53:41.285Z,15.50
2018-07-03T21:56:09.825Z,15.50
2018-07-03T21:58:38.624Z,15.50
2018-07-03T22:01:07.127Z,15.40
2018-07-03T22:06:03.856Z,15.20
2018-07-03T22:08:32.507Z,15.20
2018-07-03T22:11:01.251Z,15.10
2018-07-03T22:13:29.864Z,15.10
2018-07-03T22:16:02.082Z,14.90
2018-07-03T22:18:31.997Z,14.90
2018-07-03T22:21:00.474Z,14.80
2018-07-03T22:23:33.358Z,14.60
2018-07-03T22:26:02.298Z,14.60
2018-07-03T22:28:31.018Z,14.60
2018-07-03T22:30:59.534Z,14.50
2018-07-03T22:33:30.864Z,14.50
2018-07-03T22:35:59.287Z,14.50
2018-07-03T22:38:31.108Z,14.50
2018-07-03T22:40:59.992Z,14.50
2018-07-03T22:43:29.073Z,14.50
2018-07-03T22:45:57.707Z,14.50
2018-07-03T22:50:54.409Z,14.30
2018-07-03T22:53:22.920Z,14.20
2018-07-03T22:55:51.429Z,14.20
2018-07-03T22:58:19.860Z,14.20
2018-07-03T23:00:48.398Z,14.20
2018-07-03T23:03:16.819Z,14.30
2018-07-03T23:05:45.265Z,14.30
2018-07-03T23:08:13.704Z,14.10
2018-07-03T23:15:38.704Z,13.90
2018-07-03T23:18:07.109Z,13.90
2018-07-03T23:20:36.356Z,13.80
2018-07-03T23:23:04.990Z,13.70
2018-07-03T23:25:33.387Z,13.70
2018-07-03T23:28:01.884Z,13.70
2018-07-03T23:30:30.336Z,13.70
2018-07-03T23:32:58.897Z,13.70
2018-07-03T23:35:27.409Z,13.70
2018-07-03T23:37:55.867Z,13.70
2018-07-03T23:40:30.877Z,13.60
2018-07-03T23:42:59.392Z,13.60
2018-07-03T23:45:33.344Z,13.50
2018-07-03T23:48:13.224Z,13.50
2018-07-03T23:50:53.334Z,13.60
2018-07-03T23:53:33.225Z,13.60
2018-07-03T23:56:13.222Z,13.60
2018-07-03T23:58:53.119Z,13.50
